Time;durP1;ratioP1;P1;durP2;ratioP2;P2;SDS_P1;SDS_P2;PMS_P1;PMS_P2;Temp;Humidity;BMP_temperature;BMP_pressure;BME280_temperature;BME280_humidity;BME280_pressure;Samples;Min_cycle;Max_cycle;Signal;HPM_P1;HPM_P2
2022/06/13 04:02:40;;;;;;;49.05;21.70;;;13.80;99.90;;;;;;5018376;28;20519;-80
2022/06/13 04:05:16;;;;;;;40.38;23.13;;;13.70;99.90;;;;;;5018813;28;20042;-81
2022/06/13 04:07:42;;;;;;;40.58;23.77;;;13.70;99.90;;;;;;5021057;28;20034;-80
2022/06/13 04:10:15;;;;;;;32.35;19.55;;;13.70;99.90;;;;;;5002692;28;20120;-80
2022/06/13 04:12:59;;;;;;;28.90;18.50;;;13.70;99.90;;;;;;4982922;28;20166;-81
2022/06/13 04:15:33;;;;;;;43.50;22.13;;;13.70;99.90;;;;;;4992620;28;20844;-81
2022/06/13 04:18:10;;;;;;;31.02;17.60;;;13.80;99.90;;;;;;4979819;28;20039;-81
2022/06/13 04:20:56;;;;;;;30.67;17.10;;;13.80;99.90;;;;;;5011917;28;20039;-81
2022/06/13 04:23:33;;;;;;;22.98;13.70;;;13.80;99.90;;;;;;4997551;28;20042;-82
2022/06/13 04:26:16;;;;;;;31.10;16.42;;;13.80;99.90;;;;;;4998747;28;20089;-82
2022/06/13 04:28:42;;;;;;;35.03;19.38;;;13.70;99.90;;;;;;5013224;28;20125;-81
2022/06/13 04:31:10;;;;;;;25.13;12.55;;;13.70;99.90;;;;;;4995951;28;20031;-82
2022/06/13 04:33:59;;;;;;;34.25;19.10;;;13.70;99.90;;;;;;4980012;28;20535;-81
2022/06/13 04:36:26;;;;;;;27.00;15.80;;;13.60;99.90;;;;;;4990834;28;20047;-80
2022/06/13 04:38:55;;;;;;;21.35;12.15;;;13.60;99.90;;;;;;4998256;28;20137;-80
2022/06/13 04:41:24;;;;;;;31.77;15.90;;;13.60;99.90;;;;;;5013268;28;20034;-80
2022/06/13 04:43:56;;;;;;;29.33;17.77;;;13.60;99.90;;;;;;5000329;28;20034;-80
2022/06/13 04:46:25;;;;;;;30.17;15.63;;;13.60;99.90;;;;;;5000498;28;20082;-81
2022/06/13 04:48:55;;;;;;;30.75;17.98;;;13.50;99.90;;;;;;4997243;28;20472;-80
2022/06/13 04:51:37;;;;;;;32.58;20.35;;;13.50;99.90;;;;;;4997238;28;20069;-80
2022/06/13 04:54:25;;;;;;;22.63;13.60;;;13.50;99.90;;;;;;4979938;28;20412;-80
2022/06/13 04:56:53;;;;;;;24.65;14.68;;;13.50;99.90;;;;;;4980532;28;20031;-80
2022/06/13 04:59:18;;;;;;;28.30;14.82;;;13.50;99.90;;;;;;4997693;28;20516;-80
2022/06/13 05:01:49;;;;;;;31.80;17.10;;;13.60;99.90;;;;;;4997615;28;20103;-80
2022/06/13 05:04:21;;;;;;;33.47;19.33;;;13.60;99.90;;;;;;4997757;28;20571;-81
2022/06/13 05:06:55;;;;;;;32.15;16.98;;;13.60;99.90;;;;;;4997929;28;20481;-81
2022/06/13 05:09:31;;;;;;;34.35;19.20;;;13.70;99.90;;;;;;4999544;28;20086;-79
2022/06/13 05:12:06;;;;;;;35.47;20.27;;;13.70;99.90;;;;;;4981234;28;20117;-80
2022/06/13 05:14:38;;;;;;;33.88;20.55;;;13.80;99.90;;;;;;4995814;28;20096;-80
2022/06/13 05:17:23;;;;;;;27.33;15.10;;;13.80;99.90;;;;;;4995324;28;20038;-81
2022/06/13 05:19:59;;;;;;;22.75;11.70;;;13.90;99.90;;;;;;4997014;28;20543;-81
2022/06/13 05:22:43;;;;;;;26.30;16.35;;;14.10;99.90;;;;;;4996893;28;20030;-81
2022/06/13 05:25:12;;;;;;;19.92;12.85;;;14.50;99.90;;;;;;4998794;28;20039;-82
2022/06/13 05:27:38;;;;;;;31.63;16.08;;;14.60;99.90;;;;;;4996305;28;20515;-81
2022/06/13 05:30:04;;;;;;;24.02;12.70;;;14.70;99.90;;;;;;4996650;28;20053;-81
2022/06/13 05:32:29;;;;;;;26.67;17.52;;;14.90;99.90;;;;;;4999023;28;20035;-81
2022/06/13 05:34:55;;;;;;;21.92;12.40;;;15.10;99.90;;;;;;4988347;28;20448;-81
2022/06/13 05:37:21;;;;;;;19.83;10.52;;;15.20;99.90;;;;;;4989638;28;20023;-82
2022/06/13 05:39:47;;;;;;;20.45;13.27;;;15.30;99.90;;;;;;5018513;28;20039;-81
2022/06/13 05:42:14;;;;;;;17.05;9.85;;;15.50;99.90;;;;;;5004672;28;20046;-82
2022/06/13 05:44:40;;;;;;;22.98;12.05;;;15.70;99.90;;;;;;5005058;28;20042;-81
2022/06/13 05:47:13;;;;;;;20.30;11.57;;;15.90;99.90;;;;;;5005034;28;20521;-82
2022/06/13 05:49:39;;;;;;;14.68;7.95;;;16.00;99.90;;;;;;5005128;28;20113;-80
2022/06/13 05:52:04;;;;;;;14.48;7.07;;;16.20;99.90;;;;;;5003175;28;20121;-82
2022/06/13 05:54:30;;;;;;;17.27;6.43;;;16.20;99.90;;;;;;5004079;28;20035;-82
2022/06/13 05:56:56;;;;;;;10.73;4.82;;;16.00;99.90;;;;;;5003569;28;20039;-82
2022/06/13 05:59:21;;;;;;;15.95;6.20;;;16.00;99.90;;;;;;4985970;28;20054;-82
2022/06/13 06:01:47;;;;;;;8.13;4.50;;;16.20;99.90;;;;;;5002334;28;20065;-82
2022/06/13 06:04:12;;;;;;;11.35;4.32;;;16.30;99.90;;;;;;5003426;28;20030;-81
2022/06/13 06:06:38;;;;;;;8.55;4.07;;;16.40;99.90;;;;;;5003301;28;20078;-82
2022/06/13 06:09:05;;;;;;;8.05;3.85;;;16.40;99.90;;;;;;5016923;28;20037;-83
2022/06/13 06:11:32;;;;;;;8.80;3.33;;;16.30;99.90;;;;;;5004293;28;20031;-81
2022/06/13 06:13:58;;;;;;;8.85;3.83;;;16.10;99.90;;;;;;5004334;28;20475;-84
2022/06/13 06:16:47;;;;;;;10.43;4.03;;;15.90;99.90;;;;;;5010043;28;20066;-80
2022/06/13 06:19:12;;;;;;;10.98;3.90;;;15.90;99.90;;;;;;5009688;28;20065;-82
2022/06/13 06:21:38;;;;;;;9.20;3.30;;;15.90;99.90;;;;;;4989703;28;20026;-82
2022/06/13 06:24:03;;;;;;;12.00;3.80;;;15.80;99.90;;;;;;5010524;28;20035;-81
2022/06/13 06:26:29;;;;;;;12.05;4.07;;;15.80;99.90;;;;;;4992454;28;20110;-81
2022/06/13 06:28:55;;;;;;;9.98;3.70;;;15.80;99.90;;;;;;5011364;28;20045;-79
2022/06/13 06:31:21;;;;;;;9.50;4.32;;;15.70;99.90;;;;;;5011285;28;20027;-80
2022/06/13 06:33:46;;;;;;;9.13;4.05;;;15.70;99.90;;;;;;4993298;28;20041;-83
2022/06/13 06:36:12;;;;;;;10.57;4.00;;;15.70;99.90;;;;;;5014024;28;20038;-81
2022/06/13 06:38:38;;;;;;;11.43;4.20;;;15.60;99.90;;;;;;5013275;28;20038;-81
2022/06/13 06:41:04;;;;;;;7.88;4.03;;;15.40;99.90;;;;;;5013901;28;20408;-81
2022/06/13 06:43:29;;;;;;;8.77;4.00;;;15.40;99.90;;;;;;5014266;28;20034;-81
2022/06/13 06:45:55;;;;;;;9.57;3.75;;;15.50;99.90;;;;;;5006902;28;20035;-83
2022/06/13 06:48:23;;;;;;;12.27;4.00;;;15.60;99.90;;;;;;5014227;28;20034;-82
2022/06/13 06:50:50;;;;;;;6.03;3.58;;;15.80;99.90;;;;;;5013550;28;20505;-82
2022/06/13 06:53:21;;;;;;;8.02;4.07;;;15.90;99.90;;;;;;4999162;28;20073;-83
2022/06/13 07:01:18;;;;;;;10.02;3.40;;;16.40;99.90;;;;;;4998416;28;20509;-83
2022/06/13 07:03:44;;;;;;;9.20;2.95;;;16.60;99.90;;;;;;4980997;28;20039;-82
2022/06/13 07:06:11;;;;;;;9.02;2.58;;;17.10;99.90;;;;;;4998173;28;20027;-81
2022/06/13 07:08:37;;;;;;;5.65;2.60;;;17.50;99.90;;;;;;4981071;28;20034;-80
2022/06/13 07:14:07;;;;;;;9.82;2.60;;;17.70;99.90;;;;;;4956671;28;20032;-80
2022/06/13 07:16:32;;;;;;;7.70;2.63;;;17.80;99.90;;;;;;4988632;28;20042;-81
2022/06/13 07:18:58;;;;;;;6.43;2.38;;;18.10;99.90;;;;;;5000337;28;20094;-81
2022/06/13 07:21:24;;;;;;;5.40;2.70;;;18.20;99.90;;;;;;4998186;28;20473;-82
2022/06/13 07:23:49;;;;;;;5.88;2.55;;;18.20;99.90;;;;;;4991229;28;20050;-82
2022/06/13 07:26:15;;;;;;;6.22;2.65;;;18.00;99.90;;;;;;4998122;28;20038;-81
2022/06/13 07:28:40;;;;;;;5.68;2.33;;;17.70;99.90;;;;;;4996650;28;20041;-81
2022/06/13 07:31:07;;;;;;;8.35;3.03;;;17.60;99.90;;;;;;4981387;28;20951;-77
2022/06/13 07:33:33;;;;;;;6.38;2.28;;;17.70;99.90;;;;;;4998610;28;20039;-82
2022/06/13 07:35:58;;;;;;;7.80;2.60;;;18.00;99.90;;;;;;4997130;28;20027;-83
2022/06/13 07:38:24;;;;;;;8.20;2.80;;;18.00;99.90;;;;;;4999962;28;20066;-82
2022/06/13 07:40:57;;;;;;;7.15;3.35;;;18.20;99.90;;;;;;4999802;28;20050;-82
2022/06/13 07:43:31;;;;;;;8.52;2.15;;;18.40;99.90;;;;;;4981513;28;20122;-83
2022/06/13 07:46:00;;;;;;;6.65;2.67;;;18.60;99.90;;;;;;4999562;28;20105;-82
2022/06/13 07:48:26;;;;;;;4.68;2.17;;;18.80;99.90;;;;;;4998955;28;20073;-80
2022/06/13 07:50:52;;;;;;;6.00;2.40;;;18.90;99.90;;;;;;4980856;28;20075;-82
2022/06/13 07:53:18;;;;;;;7.25;3.33;;;18.70;99.90;;;;;;4998228;28;20050;-83
2022/06/13 07:55:44;;;;;;;7.07;3.10;;;18.50;99.90;;;;;;5002713;28;20041;-81
2022/06/13 07:58:16;;;;;;;4.15;2.60;;;18.10;99.90;;;;;;4989484;28;20738;-81
2022/06/13 08:00:45;;;;;;;6.60;2.80;;;17.80;99.90;;;;;;4988253;28;20832;-84
2022/06/13 08:03:21;;;;;;;8.32;2.83;;;17.80;99.90;;;;;;5007961;28;20963;-81
2022/06/13 08:05:46;;;;;;;6.70;2.53;;;18.10;99.90;;;;;;5007906;28;20039;-80
2022/06/13 08:08:12;;;;;;;9.63;2.40;;;18.80;99.90;;;;;;4999240;28;20042;-81
2022/06/13 08:10:40;;;;;;;9.95;2.50;;;19.60;99.90;;;;;;4998167;28;20114;-82
2022/06/13 08:13:06;;;;;;;8.95;2.63;;;20.40;99.90;;;;;;4997603;28;20551;-82
2022/06/13 08:15:31;;;;;;;7.13;2.42;;;20.70;99.90;;;;;;4997667;28;20039;-81
2022/06/13 08:17:57;;;;;;;6.13;2.83;;;20.70;99.90;;;;;;4998286;28;20528;-82
2022/06/13 08:20:23;;;;;;;7.10;2.22;;;20.50;99.90;;;;;;4980311;28;20046;-81
2022/06/13 08:22:49;;;;;;;7.75;2.75;;;20.30;99.90;;;;;;4981281;28;20553;-81
2022/06/13 08:25:22;;;;;;;6.22;2.30;;;19.70;99.90;;;;;;4981903;28;20153;-82
2022/06/13 08:27:51;;;;;;;5.88;2.40;;;19.80;99.90;;;;;;5000285;28;20051;-83
2022/06/13 08:30:17;;;;;;;12.02;3.10;;;20.20;99.90;;;;;;4999193;28;20503;-80
2022/06/13 08:32:43;;;;;;;5.35;2.20;;;20.50;99.20;;;;;;4999368;28;20039;-80
2022/06/13 08:35:09;;;;;;;8.25;2.85;;;20.60;99.90;;;;;;5000088;28;20106;-83
2022/06/13 08:37:34;;;;;;;5.60;2.40;;;20.30;99.90;;;;;;4981532;28;20500;-81
2022/06/13 08:40:00;;;;;;;8.68;2.42;;;19.80;99.90;;;;;;4998588;28;20049;-80
2022/06/13 08:42:33;;;;;;;5.68;2.30;;;20.00;99.90;;;;;;4999409;28;20495;-83
2022/06/13 08:45:07;;;;;;;7.25;2.72;;;20.40;98.90;;;;;;4999781;28;20052;-83
2022/06/13 08:47:46;;;;;;;9.45;2.58;;;20.30;99.90;;;;;;5014883;28;20041;-83
2022/06/13 08:50:42;;;;;;;8.25;2.88;;;20.70;99.60;;;;;;5014587;28;20170;-83
2022/06/13 08:53:20;;;;;;;7.63;2.60;;;20.70;98.70;;;;;;5004810;28;20122;-80
2022/06/13 08:55:57;;;;;;;6.00;2.47;;;20.80;97.80;;;;;;5004069;28;20030;-81
2022/06/13 08:58:33;;;;;;;5.45;2.63;;;21.20;94.50;;;;;;4997288;28;20043;-83
2022/06/13 09:01:05;;;;;;;6.15;1.98;;;21.40;96.90;;;;;;4986945;28;20113;-81
2022/06/13 09:04:00;;;;;;;9.15;3.00;;;21.80;95.20;;;;;;4999122;28;20042;-81
2022/06/13 09:06:45;;;;;;;6.72;2.10;;;22.20;94.70;;;;;;4976706;28;20126;-81
2022/06/13 09:09:29;;;;;;;9.48;2.63;;;21.70;90.20;;;;;;4995212;28;20528;-82
2022/06/13 09:12:09;;;;;;;7.78;2.50;;;21.30;90.90;;;;;;4977871;28;20034;-80
2022/06/13 09:14:37;;;;;;;6.43;2.40;;;21.80;88.60;;;;;;4994368;28;20628;-82
2022/06/13 09:17:30;;;;;;;7.30;1.90;;;22.00;89.10;;;;;;4976495;28;20046;-82
2022/06/13 09:20:21;;;;;;;8.27;2.13;;;22.60;82.70;;;;;;4971318;28;20050;-81
2022/06/13 09:23:02;;;;;;;6.25;2.30;;;22.60;84.10;;;;;;4997751;28;20101;-81
2022/06/13 09:25:35;;;;;;;6.90;2.53;;;22.70;83.60;;;;;;4992128;28;20089;-82
2022/06/13 09:28:18;;;;;;;3.97;2.15;;;23.30;84.90;;;;;;5001116;28;20775;-80
2022/06/13 09:30:48;;;;;;;9.25;2.00;;;23.10;81.60;;;;;;5007407;28;20034;-81
2022/06/13 09:33:26;;;;;;;5.45;1.48;;;22.40;76.90;;;;;;4996038;28;20030;-81
2022/06/13 09:36:10;;;;;;;5.28;1.90;;;22.50;77.20;;;;;;4995976;28;20081;-81
2022/06/13 09:38:44;;;;;;;5.75;1.95;;;22.60;78.60;;;;;;4995236;28;20046;-81
2022/06/13 09:41:26;;;;;;;4.03;1.30;;;23.00;79.50;;;;;;4995119;28;20034;-81
2022/06/13 09:44:21;;;;;;;6.30;1.52;;;22.80;71.40;;;;;;4977728;28;20122;-81
2022/06/13 09:47:00;;;;;;;5.65;1.90;;;22.80;71.70;;;;;;4994995;28;20083;-82
2022/06/13 09:49:38;;;;;;;5.32;1.90;;;23.00;74.90;;;;;;4994935;28;20117;-82
2022/06/13 09:52:24;;;;;;;5.85;2.20;;;23.20;73.60;;;;;;4996192;28;20569;-82
2022/06/13 09:55:00;;;;;;;8.88;1.77;;;23.50;72.30;;;;;;4964573;28;20508;-82
2022/06/13 09:57:45;;;;;;;6.13;1.80;;;23.30;65.30;;;;;;4997159;28;20041;-82
2022/06/13 10:00:23;;;;;;;5.10;1.95;;;23.20;68.60;;;;;;4995951;28;20043;-83
2022/06/13 10:03:03;;;;;;;5.03;1.65;;;23.10;76.40;;;;;;4995745;28;20120;-83
2022/06/13 10:05:34;;;;;;;3.63;1.80;;;23.00;71.80;;;;;;4995514;28;20062;-82
2022/06/13 10:08:09;;;;;;;4.93;1.95;;;23.10;72.10;;;;;;4995455;28;20085;-82
2022/06/13 10:10:45;;;;;;;6.78;2.05;;;23.20;66.00;;;;;;4998235;28;20050;-82
2022/06/13 10:13:24;;;;;;;3.25;2.08;;;23.50;71.10;;;;;;4994105;28;20121;-82
2022/06/13 10:16:09;;;;;;;3.22;1.58;;;23.50;66.30;;;;;;4995063;28;20034;-81
2022/06/13 10:19:00;;;;;;;5.30;2.38;;;23.40;63.50;;;;;;4988162;28;20098;-82
2022/06/13 10:21:36;;;;;;;6.90;2.60;;;23.40;65.30;;;;;;4996453;28;20035;-82
2022/06/13 10:24:48;;;;;;;6.75;2.55;;;23.40;69.70;;;;;;4997820;28;20027;-83
2022/06/13 10:27:32;;;;;;;4.03;1.73;;;23.50;74.40;;;;;;4942930;28;20055;-80
2022/06/13 10:30:39;;;;;;;5.00;1.70;;;23.80;68.40;;;;;;4998592;28;20031;-82
2022/06/13 10:33:41;;;;;;;4.38;1.60;;;23.90;69.80;;;;;;4972112;28;20035;-83
2022/06/13 10:36:15;;;;;;;5.13;1.70;;;24.10;64.50;;;;;;4959563;28;20116;-80
2022/06/13 10:38:57;;;;;;;6.15;1.90;;;24.00;64.70;;;;;;5011348;28;20050;-83
2022/06/13 10:41:28;;;;;;;5.00;1.73;;;23.90;66.30;;;;;;5002844;28;20027;-82
2022/06/13 10:43:55;;;;;;;5.18;1.90;;;24.20;62.60;;;;;;5001265;28;20798;-80
2022/06/13 10:46:21;;;;;;;3.05;1.60;;;24.30;64.50;;;;;;4983742;28;20022;-79
2022/06/13 10:49:16;;;;;;;4.20;1.58;;;24.40;62.70;;;;;;5015452;28;20485;-77
2022/06/13 10:51:43;;;;;;;1.58;1.23;;;23.90;60.60;;;;;;4999698;28;20031;-80
2022/06/13 10:54:20;;;;;;;4.20;1.30;;;24.00;60.60;;;;;;5000099;28;20588;-80
2022/06/13 10:56:59;;;;;;;3.17;1.80;;;24.10;58.00;;;;;;5014662;28;20841;-81
2022/06/13 10:59:31;;;;;;;5.70;1.63;;;23.60;64.50;;;;;;4982696;28;20030;-81
2022/06/13 11:02:04;;;;;;;3.40;1.27;;;23.60;60.80;;;;;;4982057;28;20417;-80
2022/06/13 11:04:32;;;;;;;6.15;1.50;;;24.10;60.00;;;;;;5001126;28;20058;-80
2022/06/13 11:07:03;;;;;;;7.03;1.75;;;24.30;58.60;;;;;;5000543;28;20102;-82
2022/06/13 11:09:40;;;;;;;2.53;1.40;;;24.90;60.80;;;;;;5004691;28;20108;-80
2022/06/13 11:12:27;;;;;;;4.55;1.58;;;25.70;60.70;;;;;;4999875;28;20070;-78
2022/06/13 11:24:00;;;;;;;3.45;1.75;;;24.40;58.50;;;;;;5002140;28;20035;-81
2022/06/13 11:29:18;;;;;;;3.05;1.52;;;24.50;61.70;;;;;;5012407;28;20026;-82
2022/06/13 11:31:51;;;;;;;7.25;1.77;;;24.90;62.10;;;;;;5009283;28;20051;-82
2022/06/13 11:34:39;;;;;;;3.22;1.50;;;25.10;58.30;;;;;;4998089;28;20035;-83
2022/06/13 11:37:24;;;;;;;6.90;1.63;;;25.30;55.30;;;;;;4979195;28;20118;-82
2022/06/13 11:39:51;;;;;;;4.43;1.60;;;25.30;56.00;;;;;;4983206;28;20078;-84
2022/06/13 11:42:26;;;;;;;4.93;1.67;;;25.50;55.30;;;;;;4980573;28;20038;-84
2022/06/13 11:45:02;;;;;;;5.20;1.88;;;25.20;54.40;;;;;;4997661;28;20031;-82
2022/06/13 11:47:43;;;;;;;4.90;1.50;;;25.40;56.80;;;;;;4981078;28;20039;-82
2022/06/13 11:50:22;;;;;;;3.72;1.70;;;25.30;55.00;;;;;;4979558;28;20042;-82
2022/06/13 11:55:50;;;;;;;4.78;1.63;;;25.40;57.90;;;;;;4997101;28;20501;-80
2022/06/13 11:58:24;;;;;;;15.00;2.40;;;25.10;54.80;;;;;;5001212;28;20500;-83
2022/06/13 12:00:53;;;;;;;42.20;5.22;;;25.50;58.30;;;;;;5013803;28;20046;-83
2022/06/13 12:03:24;;;;;;;4.30;1.77;;;26.30;54.30;;;;;;4998794;28;20492;-83
2022/06/13 12:05:59;;;;;;;3.50;1.40;;;26.00;54.30;;;;;;4997073;28;20122;-83
2022/06/13 12:08:28;;;;;;;4.30;1.83;;;26.20;54.60;;;;;;4996173;28;20035;-84
2022/06/13 12:11:06;;;;;;;4.20;1.50;;;26.30;53.70;;;;;;4996529;28;20121;-83
2022/06/13 12:13:34;;;;;;;5.93;1.95;;;26.60;52.20;;;;;;4997914;28;20045;-81
2022/06/13 12:16:21;;;;;;;5.88;1.65;;;26.40;55.10;;;;;;4998494;28;20855;-78
2022/06/13 12:19:26;;;;;;;3.97;1.73;;;26.40;54.50;;;;;;4997201;28;20051;-83
2022/06/13 12:21:51;;;;;;;7.22;1.70;;;26.10;54.30;;;;;;4998063;28;20138;-83
2022/06/13 12:24:39;;;;;;;3.45;1.70;;;24.70;56.60;;;;;;5001011;28;20173;-76
2022/06/13 12:27:11;;;;;;;4.60;1.55;;;24.80;57.40;;;;;;4998619;28;20037;-79
2022/06/13 12:29:49;;;;;;;7.72;1.60;;;25.60;58.30;;;;;;5001585;28;20038;-77
2022/06/13 12:32:19;;;;;;;4.82;1.70;;;25.80;55.80;;;;;;4999355;28;20027;-79
2022/06/13 12:34:48;;;;;;;5.18;1.70;;;25.60;54.80;;;;;;5001020;28;20472;-79
2022/06/13 12:37:23;;;;;;;5.25;1.77;;;25.80;57.80;;;;;;4985632;28;20124;-80
2022/06/13 12:40:10;;;;;;;5.00;1.70;;;26.60;55.50;;;;;;4999319;28;20072;-82
2022/06/13 12:42:41;;;;;;;5.10;1.95;;;26.80;52.10;;;;;;4997984;28;20118;-81
2022/06/13 12:45:34;;;;;;;3.33;1.65;;;26.80;53.10;;;;;;5000372;28;20516;-79
2022/06/13 12:48:17;;;;;;;3.88;1.50;;;26.80;53.90;;;;;;4979003;28;20039;-80
2022/06/13 12:51:08;;;;;;;5.30;1.80;;;27.20;53.20;;;;;;4982552;28;20035;-80
2022/06/13 12:53:53;;;;;;;8.95;3.03;;;27.10;51.80;;;;;;4983251;28;20059;-81
2022/06/13 12:56:29;;;;;;;5.78;2.10;;;27.40;55.30;;;;;;4998684;28;20031;-80
2022/06/13 12:59:27;;;;;;;17.35;2.95;;;27.40;51.70;;;;;;4999268;28;20035;-80
2022/06/13 13:02:29;;;;;;;7.28;1.90;;;27.60;48.80;;;;;;4987505;28;22399;-80
2022/06/13 13:05:20;;;;;;;6.65;1.73;;;27.40;48.70;;;;;;5001142;28;20109;-79
2022/06/13 13:08:21;;;;;;;3.75;1.80;;;27.60;53.80;;;;;;5000232;28;20409;-80
2022/06/13 13:11:25;;;;;;;5.20;1.60;;;28.30;48.50;;;;;;4999847;28;20034;-80
2022/06/13 13:14:02;;;;;;;5.07;1.80;;;28.50;49.40;;;;;;4980370;28;20745;-81
2022/06/13 13:16:57;;;;;;;5.45;1.65;;;28.70;46.50;;;;;;5001857;28;20481;-81
2022/06/13 13:19:48;;;;;;;4.78;1.85;;;29.10;46.60;;;;;;5002355;28;20073;-81
2022/06/13 13:22:26;;;;;;;3.00;1.80;;;29.50;46.70;;;;;;5001075;28;20500;-81
2022/06/13 13:25:07;;;;;;;5.57;1.70;;;29.60;47.20;;;;;;4984450;28;20046;-81
2022/06/13 13:27:45;;;;;;;7.63;1.55;;;28.40;48.40;;;;;;4983467;28;20042;-81
2022/06/13 13:30:30;;;;;;;5.63;1.80;;;26.70;50.40;;;;;;4999885;28;20050;-80
2022/06/13 13:33:22;;;;;;;5.90;1.75;;;27.00;54.00;;;;;;4982599;28;20038;-81
2022/06/13 13:36:19;;;;;;;4.78;1.90;;;28.20;49.90;;;;;;4989825;28;20039;-80
2022/06/13 13:38:55;;;;;;;4.32;1.70;;;29.40;48.00;;;;;;5000697;28;20058;-80
2022/06/13 13:41:36;;;;;;;2.90;1.58;;;29.20;49.40;;;;;;4983327;28;20031;-80
2022/06/13 13:44:11;;;;;;;4.72;1.55;;;30.50;45.20;;;;;;4983576;28;20038;-80
2022/06/13 13:46:40;;;;;;;4.07;1.63;;;31.40;45.40;;;;;;5000928;28;20050;-80
2022/06/13 13:49:31;;;;;;;3.45;1.50;;;31.20;44.80;;;;;;4983979;28;20994;-80
2022/06/13 13:52:19;;;;;;;4.07;1.75;;;30.80;47.50;;;;;;4983593;28;20194;-80
2022/06/13 13:55:01;;;;;;;4.55;1.75;;;31.30;46.60;;;;;;5005025;28;20038;-80
2022/06/13 13:57:34;;;;;;;5.63;2.08;;;31.10;46.50;;;;;;5006922;28;20093;-81
2022/06/13 14:00:14;;;;;;;7.18;2.10;;;31.80;44.90;;;;;;5020502;28;20038;-81
2022/06/13 14:02:52;;;;;;;3.38;1.70;;;32.60;41.80;;;;;;5006824;28;20698;-81
2022/06/13 14:05:55;;;;;;;5.43;1.67;;;33.30;43.60;;;;;;5015585;28;20042;-81
2022/06/13 14:08:25;;;;;;;5.82;1.80;;;33.80;38.60;;;;;;5015248;28;20042;-80
2022/06/13 14:10:55;;;;;;;4.13;1.85;;;33.90;38.60;;;;;;4989243;28;20037;-80
2022/06/13 14:13:22;;;;;;;3.67;1.60;;;34.10;42.50;;;;;;5004762;28;20046;-81
2022/06/13 14:15:48;;;;;;;4.88;1.75;;;33.60;39.60;;;;;;5005137;28;20031;-81
2022/06/13 14:18:33;;;;;;;3.28;1.67;;;34.10;39.00;;;;;;5003832;28;20122;-80
2022/06/13 14:21:07;;;;;;;2.75;1.77;;;32.70;43.80;;;;;;5002543;28;20033;-80
2022/06/13 14:23:51;;;;;;;3.72;1.60;;;33.10;41.70;;;;;;5000291;28;20027;-80
2022/06/13 14:26:37;;;;;;;3.88;1.90;;;32.90;40.70;;;;;;5003107;28;20027;-79
2022/06/13 14:29:29;;;;;;;3.95;1.80;;;32.80;43.20;;;;;;4974566;28;20114;-80
2022/06/13 14:32:06;;;;;;;3.17;1.80;;;33.40;43.60;;;;;;5002231;28;20047;-80
2022/06/13 14:35:13;;;;;;;4.03;1.77;;;34.80;38.30;;;;;;5002499;28;20031;-81
2022/06/13 14:37:48;;;;;;;2.88;1.40;;;35.00;36.20;;;;;;5004182;28;20027;-81
2022/06/13 14:40:16;;;;;;;4.95;1.70;;;32.40;38.90;;;;;;5001972;28;20041;-80
2022/06/13 14:42:57;;;;;;;3.70;1.77;;;30.10;42.20;;;;;;5004692;28;20038;-79
2022/06/13 14:45:38;;;;;;;4.35;1.73;;;29.70;47.00;;;;;;5002758;28;20031;-82
2022/06/13 14:48:22;;;;;;;6.72;1.92;;;31.20;45.40;;;;;;5002835;28;20034;-81
2022/06/13 14:51:14;;;;;;;21.05;2.53;;;32.60;40.60;;;;;;5003127;28;20035;-82
2022/06/13 14:53:50;;;;;;;4.93;1.63;;;34.20;37.90;;;;;;4986144;28;20038;-81
2022/06/13 14:56:15;;;;;;;3.80;1.67;;;34.90;36.70;;;;;;5003828;28;20516;-81
2022/06/13 14:58:46;;;;;;;3.00;1.80;;;34.20;36.80;;;;;;5003595;28;20058;-81
2022/06/13 15:01:30;;;;;;;4.38;1.73;;;35.50;37.00;;;;;;5005701;28;20035;-81
2022/06/13 15:04:03;;;;;;;3.25;1.70;;;36.60;36.50;;;;;;5004970;28;20041;-78
2022/06/13 15:06:47;;;;;;;6.25;1.80;;;37.50;35.40;;;;;;5006785;28;20134;-81
2022/06/13 15:09:49;;;;;;;3.33;1.67;;;34.90;35.70;;;;;;5009432;28;20039;-80
2022/06/13 15:12:20;;;;;;;5.32;1.58;;;31.30;41.10;;;;;;5009018;28;20818;-81
2022/06/13 15:14:59;;;;;;;5.40;1.80;;;29.80;45.70;;;;;;5008392;28;20099;-80
2022/06/13 15:17:27;;;;;;;5.70;1.85;;;28.70;46.00;;;;;;5009316;28;20035;-78
2022/06/13 15:19:57;;;;;;;7.30;2.10;;;28.80;45.40;;;;;;5010166;28;20041;-79
2022/06/13 15:22:31;;;;;;;5.25;1.83;;;30.00;44.00;;;;;;4996225;28;20031;-79
2022/06/13 15:25:00;;;;;;;4.43;1.65;;;30.30;47.60;;;;;;5017785;28;20123;-80
2022/06/13 15:27:26;;;;;;;3.67;1.60;;;29.40;45.20;;;;;;4998495;28;20039;-81
2022/06/13 15:29:58;;;;;;;3.90;1.98;;;30.80;43.80;;;;;;5017586;28;20027;-80
2022/06/13 15:32:32;;;;;;;4.38;1.70;;;33.20;41.30;;;;;;5011483;28;20031;-80
2022/06/13 15:35:01;;;;;;;3.28;1.80;;;35.70;36.60;;;;;;5001475;28;20039;-81
2022/06/13 15:37:36;;;;;;;3.72;1.73;;;36.90;34.60;;;;;;5001106;28;20034;-81
2022/06/13 15:40:03;;;;;;;4.20;1.67;;;37.80;36.00;;;;;;4983747;28;20045;-82
2022/06/13 15:42:33;;;;;;;2.92;1.95;;;37.60;33.60;;;;;;5001703;28;20031;-81
2022/06/13 15:45:02;;;;;;;3.45;1.95;;;37.40;35.00;;;;;;5001913;28;20098;-81
2022/06/13 15:47:32;;;;;;;3.15;1.95;;;37.90;33.10;;;;;;5001746;28;20086;-80
2022/06/13 15:50:02;;;;;;;6.22;2.17;;;38.50;32.90;;;;;;5001995;28;20859;-81
2022/06/13 15:52:42;;;;;;;3.20;1.98;;;38.40;34.80;;;;;;5001835;28;20083;-81
2022/06/13 15:55:14;;;;;;;6.07;2.13;;;36.50;35.20;;;;;;5002020;28;20033;-80
2022/06/13 15:57:52;;;;;;;3.65;1.80;;;37.10;34.40;;;;;;5003157;28;20031;-79
2022/06/13 16:00:31;;;;;;;5.80;2.10;;;36.60;37.50;;;;;;5001849;28;20042;-80
2022/06/13 16:02:58;;;;;;;5.13;1.77;;;36.30;34.60;;;;;;5003175;28;20090;-81
2022/06/13 16:05:27;;;;;;;4.97;2.00;;;35.60;37.40;;;;;;4983910;28;20046;-80
2022/06/13 16:08:03;;;;;;;4.65;2.00;;;35.30;37.30;;;;;;5001589;28;20035;-80
2022/06/13 16:10:35;;;;;;;3.42;1.90;;;36.00;36.20;;;;;;5002094;28;20027;-80
2022/06/13 16:13:04;;;;;;;4.72;1.67;;;35.70;35.80;;;;;;5000875;28;20034;-80
2022/06/13 16:15:33;;;;;;;5.03;1.65;;;35.90;35.00;;;;;;5006123;28;20034;-79
2022/06/13 16:18:20;;;;;;;2.83;1.80;;;36.30;36.70;;;;;;4993959;28;20045;-79
2022/06/13 16:20:50;;;;;;;7.45;2.28;;;36.80;34.90;;;;;;5013020;28;20885;-79
2022/06/13 16:23:23;;;;;;;3.92;2.05;;;37.00;36.20;;;;;;5014554;28;20809;-79
2022/06/13 16:25:49;;;;;;;4.78;1.80;;;36.40;33.10;;;;;;4996319;28;20038;-80
2022/06/13 16:28:21;;;;;;;3.95;2.15;;;35.90;34.20;;;;;;4996072;28;20098;-79
2022/06/13 16:30:51;;;;;;;4.03;2.05;;;33.70;36.90;;;;;;5014429;28;20035;-79
2022/06/13 16:33:23;;;;;;;5.45;1.80;;;32.20;38.30;;;;;;5015510;28;20055;-79
2022/06/13 16:35:56;;;;;;;4.90;2.35;;;30.20;41.80;;;;;;5016457;28;20049;-79
2022/06/13 16:38:46;;;;;;;4.65;1.80;;;29.00;44.70;;;;;;5016415;28;20018;-79
2022/06/13 16:41:32;;;;;;;5.68;2.00;;;28.40;44.80;;;;;;5017184;28;20035;-79
2022/06/13 16:44:00;;;;;;;4.80;2.15;;;27.40;46.00;;;;;;5006654;28;20090;-79
2022/06/13 16:46:29;;;;;;;3.15;1.70;;;26.80;48.00;;;;;;5005388;28;20039;-79
2022/06/13 16:48:58;;;;;;;5.75;2.03;;;26.40;48.60;;;;;;4986043;28;20417;-79
2022/06/13 16:51:29;;;;;;;6.53;2.13;;;26.10;47.80;;;;;;5003731;28;20420;-79
2022/06/13 16:53:58;;;;;;;4.05;1.85;;;25.70;50.60;;;;;;5004669;28;20125;-79
2022/06/13 16:56:26;;;;;;;5.15;2.60;;;25.60;50.50;;;;;;4999011;28;20035;-81
2022/06/13 16:58:54;;;;;;;3.10;2.00;;;25.50;52.40;;;;;;5001276;28;20047;-78
2022/06/13 17:01:20;;;;;;;4.95;2.28;;;25.30;49.20;;;;;;4998380;28;20062;-78
2022/06/13 17:03:51;;;;;;;3.83;2.00;;;25.30;52.70;;;;;;4997470;28;20491;-78
2022/06/13 17:06:27;;;;;;;4.45;2.10;;;25.00;51.10;;;;;;4997495;28;20038;-78
2022/06/13 17:09:04;;;;;;;5.63;2.35;;;24.70;52.60;;;;;;5001903;28;20047;-81
2022/06/13 17:11:51;;;;;;;5.72;1.95;;;24.40;53.00;;;;;;4980980;28;20031;-82
2022/06/13 17:14:40;;;;;;;5.35;2.72;;;24.10;54.40;;;;;;4998123;28;20378;-81
2022/06/13 17:17:12;;;;;;;4.43;2.80;;;24.10;52.90;;;;;;5002051;28;20066;-82
2022/06/13 17:19:42;;;;;;;6.53;2.47;;;24.20;52.80;;;;;;4984173;28;20049;-82
2022/06/13 17:22:08;;;;;;;5.25;2.33;;;24.30;54.70;;;;;;5000202;28;20039;-82
2022/06/13 17:24:35;;;;;;;5.85;2.58;;;24.10;54.20;;;;;;4983245;28;20090;-82
2022/06/13 17:32:29;;;;;;;4.30;2.40;;;23.90;53.40;;;;;;5003876;28;20046;-83
2022/06/13 17:34:55;;;;;;;8.75;2.78;;;24.00;55.80;;;;;;5004443;28;20046;-83
2022/06/13 17:37:22;;;;;;;7.70;3.67;;;24.10;53.80;;;;;;4984335;28;20035;-83
2022/06/13 17:39:48;;;;;;;5.82;2.60;;;23.80;55.00;;;;;;5001331;28;20090;-80
2022/06/13 17:42:18;;;;;;;5.25;2.20;;;23.60;54.80;;;;;;5002054;28;20039;-80
2022/06/13 17:44:44;;;;;;;6.78;2.78;;;23.70;55.60;;;;;;5000571;28;20034;-82
2022/06/13 17:47:14;;;;;;;4.57;2.15;;;23.40;57.40;;;;;;4982202;28;20043;-82
2022/06/13 17:49:41;;;;;;;5.90;2.30;;;23.40;56.20;;;;;;4979614;28;20880;-84
2022/06/13 17:52:09;;;;;;;4.35;2.25;;;23.50;57.30;;;;;;4996270;28;20030;-82